sensor_id;sensor_type;location;lat;lon;timestamp;pressure;altitude;pressure_sealevel;temperature;humidity
62800;BME280;48842;51.046;13.796;2022-09-01T00:00:47;100891.53;;;19.42;nan
62800;BME280;48842;51.046;13.796;2022-09-01T00:03:15;100897.84;;;19.38;nan
62800;BME280;48842;51.046;13.796;2022-09-01T00:05:41;100902.34;;;19.34;nan
62800;BME280;48842;51.046;13.796;2022-09-01T00:08:06;100899.75;;;19.32;nan
62800;BME280;48842;51.046;13.796;2022-09-01T00:10:31;100897.13;;;19.31;nan
62800;BME280;48842;51.046;13.796;2022-09-01T00:12:57;100891.84;;;19.29;nan
62800;BME280;48842;51.046;13.796;2022-09-01T00:15:23;100894.53;;;19.28;nan
62800;BME280;48842;51.046;13.796;2022-09-01T00:17:48;100893.69;;;19.26;nan
62800;BME280;48842;51.046;13.796;2022-09-01T00:20:13;100901.72;;;19.23;nan
62800;BME280;48842;51.046;13.796;2022-09-01T00:22:38;100892.03;;;19.20;nan
62800;BME280;48842;51.046;13.796;2022-09-01T00:25:05;100896.56;;;19.16;nan
62800;BME280;48842;51.046;13.796;2022-09-01T00:27:30;100892.19;;;19.14;nan
62800;BME280;48842;51.046;13.796;2022-09-01T00:29:57;100885.19;;;19.10;nan
62800;BME280;48842;51.046;13.796;2022-09-01T00:32:22;100890.56;;;19.07;nan
62800;BME280;48842;51.046;13.796;2022-09-01T00:34:47;100890.66;;;19.04;nan
62800;BME280;48842;51.046;13.796;2022-09-01T00:37:12;100891.63;;;18.99;nan
62800;BME280;48842;51.046;13.796;2022-09-01T00:39:38;100889.94;;;18.97;nan
62800;BME280;48842;51.046;13.796;2022-09-01T00:42:03;100889.97;;;18.94;nan
62800;BME280;48842;51.046;13.796;2022-09-01T00:44:29;100886.50;;;18.90;nan
62800;BME280;48842;51.046;13.796;2022-09-01T00:46:55;100890.06;;;18.89;nan
62800;BME280;48842;51.046;13.796;2022-09-01T00:49:29;100893.69;;;18.87;nan
62800;BME280;48842;51.046;13.796;2022-09-01T00:52:07;100899.91;;;18.84;nan
62800;BME280;48842;51.046;13.796;2022-09-01T00:54:36;100894.63;;;18.82;nan
62800;BME280;48842;51.046;13.796;2022-09-01T00:57:04;100888.44;;;18.80;nan
62800;BME280;48842;51.046;13.796;2022-09-01T00:59:30;100897.38;;;18.78;nan
62800;BME280;48842;51.046;13.796;2022-09-01T01:01:56;100885.03;;;18.75;nan
62800;BME280;48842;51.046;13.796;2022-09-01T01:04:22;100882.41;;;18.74;nan
62800;BME280;48842;51.046;13.796;2022-09-01T01:06:51;100887.75;;;18.72;nan
62800;BME280;48842;51.046;13.796;2022-09-01T01:09:24;100883.41;;;18.68;nan
62800;BME280;48842;51.046;13.796;2022-09-01T01:11:52;100890.56;;;18.64;nan
62800;BME280;48842;51.046;13.796;2022-09-01T01:14:17;100893.19;;;18.64;nan
62800;BME280;48842;51.046;13.796;2022-09-01T01:16:45;100888.84;;;18.62;nan
62800;BME280;48842;51.046;13.796;2022-09-01T01:19:36;100883.59;;;18.60;nan
62800;BME280;48842;51.046;13.796;2022-09-01T01:22:37;100875.69;;;18.56;nan
62800;BME280;48842;51.046;13.796;2022-09-01T01:25:22;100884.63;;;18.53;nan
62800;BME280;48842;51.046;13.796;2022-09-01T01:27:48;100884.69;;;18.50;nan
62800;BME280;48842;51.046;13.796;2022-09-01T01:30:16;100883.81;;;18.48;nan
62800;BME280;48842;51.046;13.796;2022-09-01T01:32:43;100883.84;;;18.46;nan
62800;BME280;48842;51.046;13.796;2022-09-01T01:35:13;100883.00;;;18.46;nan
62800;BME280;48842;51.046;13.796;2022-09-01T01:37:45;100882.13;;;18.44;nan
62800;BME280;48842;51.046;13.796;2022-09-01T01:40:15;100886.53;;;18.45;nan
62800;BME280;48842;51.046;13.796;2022-09-01T01:42:45;100883.91;;;18.43;nan
62800;BME280;48842;51.046;13.796;2022-09-01T01:45:13;100879.50;;;18.42;nan
62800;BME280;48842;51.046;13.796;2022-09-01T01:47:42;100889.31;;;18.39;nan
62800;BME280;48842;51.046;13.796;2022-09-01T01:50:08;100891.09;;;18.37;nan
62800;BME280;48842;51.046;13.796;2022-09-01T01:52:34;100884.97;;;18.35;nan
62800;BME280;48842;51.046;13.796;2022-09-01T01:55:00;100885.88;;;18.34;nan
62800;BME280;48842;51.046;13.796;2022-09-01T01:57:26;100887.72;;;18.30;nan
62800;BME280;48842;51.046;13.796;2022-09-01T01:59:59;100884.22;;;18.26;nan
62800;BME280;48842;51.046;13.796;2022-09-01T02:02:25;100877.22;;;18.24;nan
62800;BME280;48842;51.046;13.796;2022-09-01T02:04:50;100883.44;;;18.23;nan
62800;BME280;48842;51.046;13.796;2022-09-01T02:07:17;100886.94;;;18.23;nan
62800;BME280;48842;51.046;13.796;2022-09-01T02:09:42;100891.38;;;18.23;nan
62800;BME280;48842;51.046;13.796;2022-09-01T02:12:10;100890.50;;;18.24;nan
62800;BME280;48842;51.046;13.796;2022-09-01T02:14:35;100891.38;;;18.23;nan
62800;BME280;48842;51.046;13.796;2022-09-01T02:17:01;100887.91;;;18.19;nan
62800;BME280;48842;51.046;13.796;2022-09-01T02:19:27;100889.72;;;18.17;nan
62800;BME280;48842;51.046;13.796;2022-09-01T02:21:52;100887.97;;;18.16;nan
62800;BME280;48842;51.046;13.796;2022-09-01T02:24:21;100886.19;;;18.17;nan
62800;BME280;48842;51.046;13.796;2022-09-01T02:26:48;100885.34;;;18.14;nan
62800;BME280;48842;51.046;13.796;2022-09-01T02:29:16;100886.25;;;18.12;nan
62800;BME280;48842;51.046;13.796;2022-09-01T02:31:45;100886.28;;;18.10;nan
62800;BME280;48842;51.046;13.796;2022-09-01T02:34:11;100877.47;;;18.10;nan
62800;BME280;48842;51.046;13.796;2022-09-01T02:36:39;100885.44;;;18.10;nan
62800;BME280;48842;51.046;13.796;2022-09-01T02:39:12;100876.63;;;18.08;nan
62800;BME280;48842;51.046;13.796;2022-09-01T02:41:38;100871.38;;;18.06;nan
62800;BME280;48842;51.046;13.796;2022-09-01T02:44:05;100874.91;;;18.05;nan
62800;BME280;48842;51.046;13.796;2022-09-01T02:46:36;100874.06;;;18.03;nan
62800;BME280;48842;51.046;13.796;2022-09-01T02:49:05;100867.88;;;18.03;nan
62800;BME280;48842;51.046;13.796;2022-09-01T02:51:32;100860.81;;;18.02;nan
62800;BME280;48842;51.046;13.796;2022-09-01T02:53:58;100872.31;;;18.02;nan
62800;BME280;48842;51.046;13.796;2022-09-01T02:56:24;100867.91;;;18.01;nan
62800;BME280;48842;51.046;13.796;2022-09-01T02:58:52;100868.81;;;18.00;nan
62800;BME280;48842;51.046;13.796;2022-09-01T03:01:21;100859.16;;;17.98;nan
62800;BME280;48842;51.046;13.796;2022-09-01T03:03:50;100861.84;;;17.96;nan
62800;BME280;48842;51.046;13.796;2022-09-01T03:06:16;100862.69;;;17.96;nan
62800;BME280;48842;51.046;13.796;2022-09-01T03:08:44;100865.34;;;17.96;nan
62800;BME280;48842;51.046;13.796;2022-09-01T03:11:09;100868.94;;;17.94;nan
62800;BME280;48842;51.046;13.796;2022-09-01T03:13:37;100868.94;;;17.94;nan
62800;BME280;48842;51.046;13.796;2022-09-01T03:16:04;100865.44;;;17.92;nan
62800;BME280;48842;51.046;13.796;2022-09-01T03:18:30;100873.38;;;17.93;nan
62800;BME280;48842;51.046;13.796;2022-09-01T03:20:55;100868.94;;;17.94;nan
62800;BME280;48842;51.046;13.796;2022-09-01T03:23:21;100868.94;;;17.94;nan
62800;BME280;48842;51.046;13.796;2022-09-01T03:25:49;100865.41;;;17.93;nan
62800;BME280;48842;51.046;13.796;2022-09-01T03:28:15;100869.78;;;17.94;nan
62800;BME280;48842;51.046;13.796;2022-09-01T03:30:46;100874.25;;;17.92;nan
62800;BME280;48842;51.046;13.796;2022-09-01T03:33:13;100870.78;;;17.90;nan
62800;BME280;48842;51.046;13.796;2022-09-01T03:35:41;100864.56;;;17.90;nan
62800;BME280;48842;51.046;13.796;2022-09-01T03:38:07;100866.31;;;17.89;nan
62800;BME280;48842;51.046;13.796;2022-09-01T03:40:33;100861.91;;;17.88;nan
62800;BME280;48842;51.046;13.796;2022-09-01T03:43:01;100867.25;;;17.87;nan
62800;BME280;48842;51.046;13.796;2022-09-01T03:45:28;100873.44;;;17.87;nan
62800;BME280;48842;51.046;13.796;2022-09-01T03:47:54;100877.00;;;17.86;nan
62800;BME280;48842;51.046;13.796;2022-09-01T03:50:22;100871.72;;;17.85;nan
62800;BME280;48842;51.046;13.796;2022-09-01T03:52:57;100867.25;;;17.87;nan
62800;BME280;48842;51.046;13.796;2022-09-01T03:55:30;100872.53;;;17.88;nan
62800;BME280;48842;51.046;13.796;2022-09-01T03:58:00;100869.91;;;17.87;nan
62800;BME280;48842;51.046;13.796;2022-09-01T04:00:32;100870.78;;;17.87;nan
62800;BME280;48842;51.046;13.796;2022-09-01T04:03:01;100870.78;;;17.86;nan
62800;BME280;48842;51.046;13.796;2022-09-01T04:05:28;100869.88;;;17.88;nan
62800;BME280;48842;51.046;13.796;2022-09-01T04:07:56;100873.44;;;17.87;nan
62800;BME280;48842;51.046;13.796;2022-09-01T04:10:22;100878.72;;;17.89;nan
62800;BME280;48842;51.046;13.796;2022-09-01T04:12:48;100876.94;;;17.89;nan
62800;BME280;48842;51.046;13.796;2022-09-01T04:15:16;100871.63;;;17.89;nan
62800;BME280;48842;51.046;13.796;2022-09-01T04:17:43;100878.72;;;17.90;nan
62800;BME280;48842;51.046;13.796;2022-09-01T04:20:27;100868.06;;;17.93;nan
62800;BME280;48842;51.046;13.796;2022-09-01T04:22:53;100878.59;;;17.96;nan
62800;BME280;48842;51.046;13.796;2022-09-01T04:25:19;100875.00;;;18.01;nan
62800;BME280;48842;51.046;13.796;2022-09-01T04:27:51;100871.41;;;18.05;nan
62800;BME280;48842;51.046;13.796;2022-09-01T04:30:21;100883.63;;;18.12;nan
62800;BME280;48842;51.046;13.796;2022-09-01T04:32:49;100875.63;;;18.13;nan
62800;BME280;48842;51.046;13.796;2022-09-01T04:35:16;100874.72;;;18.14;nan
62800;BME280;48842;51.046;13.796;2022-09-01T04:37:42;100877.34;;;18.16;nan
62800;BME280;48842;51.046;13.796;2022-09-01T04:40:08;100876.47;;;18.17;nan
62800;BME280;48842;51.046;13.796;2022-09-01T04:42:34;100879.09;;;18.19;nan
62800;BME280;48842;51.046;13.796;2022-09-01T04:44:59;100882.53;;;18.22;nan
62800;BME280;48842;51.046;13.796;2022-09-01T04:47:26;100879.00;;;18.23;nan
62800;BME280;48842;51.046;13.796;2022-09-01T04:49:58;100878.09;;;18.24;nan
62800;BME280;48842;51.046;13.796;2022-09-01T04:52:25;100876.28;;;18.26;nan
62800;BME280;48842;51.046;13.796;2022-09-01T04:54:51;100886.88;;;18.26;nan
62800;BME280;48842;51.046;13.796;2022-09-01T04:57:16;100881.59;;;18.25;nan
62800;BME280;48842;51.046;13.796;2022-09-01T04:59:42;100878.97;;;18.25;nan
62800;BME280;48842;51.046;13.796;2022-09-01T05:02:08;100881.63;;;18.23;nan
62800;BME280;48842;51.046;13.796;2022-09-01T05:04:34;100879.88;;;18.22;nan
62800;BME280;48842;51.046;13.796;2022-09-01T05:07:01;100887.00;;;18.20;nan
62800;BME280;48842;51.046;13.796;2022-09-01T05:09:28;100891.47;;;18.18;nan
62800;BME280;48842;51.046;13.796;2022-09-01T05:11:54;100893.19;;;18.19;nan
62800;BME280;48842;51.046;13.796;2022-09-01T05:14:21;100902.06;;;18.20;nan
62800;BME280;48842;51.046;13.796;2022-09-01T05:16:47;100896.75;;;18.20;nan
62800;BME280;48842;51.046;13.796;2022-09-01T05:19:14;100896.72;;;18.21;nan
62800;BME280;48842;51.046;13.796;2022-09-01T05:21:41;100888.75;;;18.21;nan
62800;BME280;48842;51.046;13.796;2022-09-01T05:24:10;100894.94;;;18.22;nan
62800;BME280;48842;51.046;13.796;2022-09-01T05:26:36;100901.09;;;18.24;nan
62800;BME280;48842;51.046;13.796;2022-09-01T05:29:05;100894.91;;;18.23;nan
62800;BME280;48842;51.046;13.796;2022-09-01T05:31:39;100889.59;;;18.23;nan
62800;BME280;48842;51.046;13.796;2022-09-01T05:34:05;100888.69;;;18.24;nan
62800;BME280;48842;51.046;13.796;2022-09-01T05:36:35;100891.38;;;18.23;nan
62800;BME280;48842;51.046;13.796;2022-09-01T05:39:02;100897.63;;;18.20;nan
62800;BME280;48842;51.046;13.796;2022-09-01T05:41:29;100897.72;;;18.14;nan
62800;BME280;48842;51.046;13.796;2022-09-01T05:43:54;100901.31;;;18.11;nan
62800;BME280;48842;51.046;13.796;2022-09-01T05:46:22;100905.72;;;18.12;nan
62800;BME280;48842;51.046;13.796;2022-09-01T05:48:49;100904.78;;;18.15;nan
62800;BME280;48842;51.046;13.796;2022-09-01T05:51:17;100896.78;;;18.18;nan
62800;BME280;48842;51.046;13.796;2022-09-01T05:53:45;100893.16;;;18.21;nan
62800;BME280;48842;51.046;13.796;2022-09-01T05:56:10;100896.69;;;18.23;nan
62800;BME280;48842;51.046;13.796;2022-09-01T05:58:38;100898.44;;;18.24;nan
62800;BME280;48842;51.046;13.796;2022-09-01T06:01:05;100901.06;;;18.25;nan
62800;BME280;48842;51.046;13.796;2022-09-01T06:03:31;100889.53;;;18.26;nan
62800;BME280;48842;51.046;13.796;2022-09-01T06:06:02;100900.13;;;18.28;nan
62800;BME280;48842;51.046;13.796;2022-09-01T06:08:33;100897.44;;;18.29;nan
62800;BME280;48842;51.046;13.796;2022-09-01T06:11:00;100900.94;;;18.31;nan
62800;BME280;48842;51.046;13.796;2022-09-01T06:13:25;100902.66;;;18.34;nan
62800;BME280;48842;51.046;13.796;2022-09-01T06:15:50;100897.41;;;18.33;nan
62800;BME280;48842;51.046;13.796;2022-09-01T06:18:19;100906.22;;;18.33;nan
62800;BME280;48842;51.046;13.796;2022-09-01T06:20:46;100903.56;;;18.33;nan
62800;BME280;48842;51.046;13.796;2022-09-01T06:23:12;100901.75;;;18.35;nan
62800;BME280;48842;51.046;13.796;2022-09-01T06:25:40;100910.56;;;18.37;nan
62800;BME280;48842;51.046;13.796;2022-09-01T06:28:06;100909.69;;;18.37;nan
62800;BME280;48842;51.046;13.796;2022-09-01T06:30:32;100900.97;;;18.30;nan
62800;BME280;48842;51.046;13.796;2022-09-01T06:33:01;100905.38;;;18.29;nan
62800;BME280;48842;51.046;13.796;2022-09-01T06:35:26;100907.19;;;18.29;nan
62800;BME280;48842;51.046;13.796;2022-09-01T06:37:55;100909.78;;;18.30;nan
62800;BME280;48842;51.046;13.796;2022-09-01T06:40:22;100910.63;;;18.34;nan
62800;BME280;48842;51.046;13.796;2022-09-01T06:42:50;100909.69;;;18.37;nan
62800;BME280;48842;51.046;13.796;2022-09-01T06:45:18;100904.31;;;18.40;nan
62800;BME280;48842;51.046;13.796;2022-09-01T06:47:45;100907.81;;;18.42;nan
62800;BME280;48842;51.046;13.796;2022-09-01T06:50:13;100916.59;;;18.45;nan
62800;BME280;48842;51.046;13.796;2022-09-01T06:52:42;100915.69;;;18.46;nan
62800;BME280;48842;51.046;13.796;2022-09-01T06:55:13;100920.09;;;18.47;nan
62800;BME280;48842;51.046;13.796;2022-09-01T06:57:39;100913.88;;;18.50;nan
62800;BME280;48842;51.046;13.796;2022-09-01T07:00:14;100923.56;;;18.51;nan
62800;BME280;48842;51.046;13.796;2022-09-01T07:02:44;100920.81;;;18.56;nan
62800;BME280;48842;51.046;13.796;2022-09-01T07:05:11;100923.38;;;18.60;nan
62800;BME280;48842;51.046;13.796;2022-09-01T07:07:37;100924.16;;;18.65;nan
62800;BME280;48842;51.046;13.796;2022-09-01T07:10:04;100924.03;;;18.72;nan
62800;BME280;48842;51.046;13.796;2022-09-01T07:12:29;100929.28;;;18.75;nan
62800;BME280;48842;51.046;13.796;2022-09-01T07:14:56;100923.97;;;18.76;nan
62800;BME280;48842;51.046;13.796;2022-09-01T07:17:23;100922.19;;;18.75;nan
62800;BME280;48842;51.046;13.796;2022-09-01T07:19:49;100932.81;;;18.75;nan
62800;BME280;48842;51.046;13.796;2022-09-01T07:22:14;100922.13;;;18.78;nan
62800;BME280;48842;51.046;13.796;2022-09-01T07:24:39;100927.38;;;18.81;nan
62800;BME280;48842;51.046;13.796;2022-09-01T07:27:04;100931.72;;;18.86;nan
62800;BME280;48842;51.046;13.796;2022-09-01T07:29:30;100921.13;;;18.84;nan
62800;BME280;48842;51.046;13.796;2022-09-01T07:31:57;100927.34;;;18.83;nan
62800;BME280;48842;51.046;13.796;2022-09-01T07:34:22;100926.44;;;18.84;nan
62800;BME280;48842;51.046;13.796;2022-09-01T07:36:48;100928.16;;;18.88;nan
62800;BME280;48842;51.046;13.796;2022-09-01T07:39:14;100928.09;;;18.91;nan
62800;BME280;48842;51.046;13.796;2022-09-01T07:41:40;100928.84;;;18.96;nan
62800;BME280;48842;51.046;13.796;2022-09-01T07:44:07;100926.13;;;18.99;nan
62800;BME280;48842;51.046;13.796;2022-09-01T07:46:34;100927.84;;;19.02;nan
62800;BME280;48842;51.046;13.796;2022-09-01T07:49:00;100930.44;;;19.05;nan
62800;BME280;48842;51.046;13.796;2022-09-01T07:51:26;100934.03;;;19.04;nan
62800;BME280;48842;51.046;13.796;2022-09-01T07:53:53;100936.66;;;19.06;nan
62800;BME280;48842;51.046;13.796;2022-09-01T07:56:20;100930.41;;;19.07;nan
62800;BME280;48842;51.046;13.796;2022-09-01T07:58:48;100930.38;;;19.08;nan
62800;BME280;48842;51.046;13.796;2022-09-01T08:01:19;100932.03;;;19.14;nan
62800;BME280;48842;51.046;13.796;2022-09-01T08:03:51;100931.09;;;19.16;nan
62800;BME280;48842;51.046;13.796;2022-09-01T08:06:19;100928.34;;;19.19;nan
62800;BME280;48842;51.046;13.796;2022-09-01T08:08:47;100934.53;;;19.22;nan
62800;BME280;48842;51.046;13.796;2022-09-01T08:11:22;100930.03;;;19.24;nan
62800;BME280;48842;51.046;13.796;2022-09-01T08:13:49;100930.84;;;19.27;nan
62800;BME280;48842;51.046;13.796;2022-09-01T08:16:14;100932.59;;;19.28;nan
62800;BME280;48842;51.046;13.796;2022-09-01T08:18:41;100931.69;;;19.29;nan
62800;BME280;48842;51.046;13.796;2022-09-01T08:21:08;100936.94;;;19.32;nan
62800;BME280;48842;51.046;13.796;2022-09-01T08:23:33;100935.06;;;19.36;nan
62800;BME280;48842;51.046;13.796;2022-09-01T08:26:05;100942.97;;;19.41;nan
62800;BME280;48842;51.046;13.796;2022-09-01T08:28:30;100941.94;;;19.45;nan
62800;BME280;48842;51.046;13.796;2022-09-01T08:30:56;100940.13;;;19.48;nan
62800;BME280;48842;51.046;13.796;2022-09-01T08:33:22;100936.47;;;19.52;nan
62800;BME280;48842;51.046;13.796;2022-09-01T08:35:48;100943.47;;;19.57;nan
62800;BME280;48842;51.046;13.796;2022-09-01T08:38:13;100948.63;;;19.63;nan
62800;BME280;48842;51.046;13.796;2022-09-01T08:40:40;100937.84;;;19.69;nan
62800;BME280;48842;51.046;13.796;2022-09-01T08:43:18;100944.78;;;19.76;nan
62800;BME280;48842;51.046;13.796;2022-09-01T08:45:54;100941.03;;;19.85;nan
62800;BME280;48842;51.046;13.796;2022-09-01T08:48:38;100944.34;;;19.95;nan
62800;BME280;48842;51.046;13.796;2022-09-01T08:56:58;100942.22;;;20.08;nan
62800;BME280;48842;51.046;13.796;2022-09-01T08:59:25;100931.50;;;20.12;nan
62800;BME280;48842;51.046;13.796;2022-09-01T09:02:14;100934.03;;;20.17;nan
62800;BME280;48842;51.046;13.796;2022-09-01T09:10:09;100939.88;;;20.31;nan
62800;BME280;48842;51.046;13.796;2022-09-01T09:13:10;100938.78;;;20.38;nan
62800;BME280;48842;51.046;13.796;2022-09-01T09:18:19;100938.44;;;20.51;nan
62800;BME280;48842;51.046;13.796;2022-09-01T09:20:48;100932.97;;;20.55;nan
62800;BME280;48842;51.046;13.796;2022-09-01T09:23:37;100927.44;;;20.63;nan
62800;BME280;48842;51.046;13.796;2022-09-01T09:26:05;100928.97;;;20.73;nan
62800;BME280;48842;51.046;13.796;2022-09-01T09:28:30;100932.25;;;20.82;nan
62800;BME280;48842;51.046;13.796;2022-09-01T09:31:27;100931.06;;;20.92;nan
62800;BME280;48842;51.046;13.796;2022-09-01T09:33:53;100932.69;;;20.98;nan
62800;BME280;48842;51.046;13.796;2022-09-01T09:36:22;100930.81;;;21.01;nan
62800;BME280;48842;51.046;13.796;2022-09-01T09:39:04;100928.06;;;21.04;nan
62800;BME280;48842;51.046;13.796;2022-09-01T09:41:29;100917.22;;;21.10;nan
62800;BME280;48842;51.046;13.796;2022-09-01T09:44:04;100920.59;;;21.16;nan
62800;BME280;48842;51.046;13.796;2022-09-01T09:46:41;100918.66;;;21.21;nan
62800;BME280;48842;51.046;13.796;2022-09-01T09:54:28;100908.72;;;21.27;nan
62800;BME280;48842;51.046;13.796;2022-09-01T09:57:11;100900.72;;;21.26;nan
62800;BME280;48842;51.046;13.796;2022-09-01T09:59:47;100905.94;;;21.31;nan
62800;BME280;48842;51.046;13.796;2022-09-01T10:02:34;100914.69;;;21.34;nan
62800;BME280;48842;51.046;13.796;2022-09-01T10:05:23;100909.16;;;21.40;nan
62800;BME280;48842;51.046;13.796;2022-09-01T10:07:50;100904.56;;;21.45;nan
62800;BME280;48842;51.046;13.796;2022-09-01T10:10:39;100910.72;;;21.48;nan
62800;BME280;48842;51.046;13.796;2022-09-01T10:13:14;100905.25;;;21.52;nan
62800;BME280;48842;51.046;13.796;2022-09-01T10:15:42;100898.84;;;21.58;nan
62800;BME280;48842;51.046;13.796;2022-09-01T10:18:15;100911.13;;;21.64;nan
62800;BME280;48842;51.046;13.796;2022-09-01T10:20:50;100912.66;;;21.71;nan
62800;BME280;48842;51.046;13.796;2022-09-01T10:23:19;100908.94;;;21.76;nan
62800;BME280;48842;51.046;13.796;2022-09-01T10:25:45;100911.31;;;21.84;nan
62800;BME280;48842;51.046;13.796;2022-09-01T10:28:17;100907.47;;;21.93;nan
62800;BME280;48842;51.046;13.796;2022-09-01T10:30:44;100901.13;;;21.97;nan
62800;BME280;48842;51.046;13.796;2022-09-01T10:33:14;100903.56;;;22.03;nan
62800;BME280;48842;51.046;13.796;2022-09-01T10:35:42;100906.03;;;22.09;nan
62800;BME280;48842;51.046;13.796;2022-09-01T10:38:14;100901.44;;;22.13;nan
62800;BME280;48842;51.046;13.796;2022-09-01T10:40:42;100896.78;;;22.20;nan
62800;BME280;48842;51.046;13.796;2022-09-01T10:43:48;100895.84;;;22.21;nan
62800;BME280;48842;51.046;13.796;2022-09-01T10:48:45;100894.75;;;22.26;nan
62800;BME280;48842;51.046;13.796;2022-09-01T10:53:42;100897.19;;;22.34;nan
62800;BME280;48842;51.046;13.796;2022-09-01T11:04:09;100893.03;;;22.51;nan
62800;BME280;48842;51.046;13.796;2022-09-01T11:15:05;100883.75;;;22.61;nan
62800;BME280;48842;51.046;13.796;2022-09-01T11:20:27;100873.06;;;22.61;nan
62800;BME280;48842;51.046;13.796;2022-09-01T11:23:07;100880.19;;;22.60;nan
62800;BME280;48842;51.046;13.796;2022-09-01T11:25:43;100881.06;;;22.61;nan
62800;BME280;48842;51.046;13.796;2022-09-01T11:31:01;100880.16;;;22.62;nan
62800;BME280;48842;51.046;13.796;2022-09-01T11:33:42;100882.84;;;22.60;nan
62800;BME280;48842;51.046;13.796;2022-09-01T11:44:19;100883.69;;;22.62;nan
62800;BME280;48842;51.046;13.796;2022-09-01T11:46:47;100883.63;;;22.64;nan
62800;BME280;48842;51.046;13.796;2022-09-01T11:49:28;100885.44;;;22.63;nan
62800;BME280;48842;51.046;13.796;2022-09-01T11:51:54;100883.56;;;22.65;nan
62800;BME280;48842;51.046;13.796;2022-09-01T11:54:22;100875.56;;;22.65;nan
62800;BME280;48842;51.046;13.796;2022-09-01T11:56:47;100885.31;;;22.66;nan
62800;BME280;48842;51.046;13.796;2022-09-01T11:59:12;100882.59;;;22.68;nan
62800;BME280;48842;51.046;13.796;2022-09-01T12:01:38;100880.72;;;22.70;nan
62800;BME280;48842;51.046;13.796;2022-09-01T12:04:24;100882.47;;;22.71;nan
62800;BME280;48842;51.046;13.796;2022-09-01T12:06:57;100876.28;;;22.69;nan
62800;BME280;48842;51.046;13.796;2022-09-01T12:09:33;100880.03;;;22.65;nan
62800;BME280;48842;51.046;13.796;2022-09-01T12:11:59;100880.91;;;22.65;nan
62800;BME280;48842;51.046;13.796;2022-09-01T12:14:25;100875.50;;;22.67;nan
62800;BME280;48842;51.046;13.796;2022-09-01T12:17:03;100878.09;;;22.69;nan
62800;BME280;48842;51.046;13.796;2022-09-01T12:19:32;100869.22;;;22.68;nan
62800;BME280;48842;51.046;13.796;2022-09-01T12:24:25;100861.84;;;22.75;nan
62800;BME280;48842;51.046;13.796;2022-09-01T12:26:53;100861.56;;;22.82;nan
62800;BME280;48842;51.046;13.796;2022-09-01T12:29:19;100859.44;;;22.91;nan
62800;BME280;48842;51.046;13.796;2022-09-01T12:31:48;100864.50;;;22.98;nan
62800;BME280;48842;51.046;13.796;2022-09-01T12:37:03;100856.78;;;23.14;nan
62800;BME280;48842;51.046;13.796;2022-09-01T12:39:52;100860.91;;;23.23;nan
62800;BME280;48842;51.046;13.796;2022-09-01T12:44:49;100856.16;;;23.30;nan
62800;BME280;48842;51.046;13.796;2022-09-01T12:52:44;100845.44;;;23.30;nan
62800;BME280;48842;51.046;13.796;2022-09-01T12:55:19;100851.63;;;23.32;nan
62800;BME280;48842;51.046;13.796;2022-09-01T12:57:53;100846.22;;;23.33;nan
62800;BME280;48842;51.046;13.796;2022-09-01T13:00:25;100844.41;;;23.34;nan
62800;BME280;48842;51.046;13.796;2022-09-01T13:03:13;100843.53;;;23.33;nan
62800;BME280;48842;51.046;13.796;2022-09-01T13:05:44;100837.22;;;23.34;nan
62800;BME280;48842;51.046;13.796;2022-09-01T13:08:17;100840.88;;;23.33;nan
62800;BME280;48842;51.046;13.796;2022-09-01T13:10:45;100837.47;;;23.50;nan
62800;BME280;48842;51.046;13.796;2022-09-01T13:13:13;100835.25;;;24.03;nan
62800;BME280;48842;51.046;13.796;2022-09-01T13:15:42;100828.84;;;24.66;nan
62800;BME280;48842;51.046;13.796;2022-09-01T13:18:08;100830.28;;;25.65;nan
62800;BME280;48842;51.046;13.796;2022-09-01T13:20:34;100814.66;;;26.42;nan
62800;BME280;48842;51.046;13.796;2022-09-01T13:22:59;100819.53;;;26.67;nan
62800;BME280;48842;51.046;13.796;2022-09-01T13:25:24;100821.53;;;26.63;nan
62800;BME280;48842;51.046;13.796;2022-09-01T13:27:50;100823.06;;;26.52;nan
62800;BME280;48842;51.046;13.796;2022-09-01T13:30:19;100818.63;;;26.35;nan
62800;BME280;48842;51.046;13.796;2022-09-01T13:32:46;100826.91;;;26.14;nan
62800;BME280;48842;51.046;13.796;2022-09-01T13:35:14;100821.78;;;25.92;nan
62800;BME280;48842;51.046;13.796;2022-09-01T13:37:40;100817.53;;;25.70;nan
62800;BME280;48842;51.046;13.796;2022-09-01T13:40:06;100826.50;;;25.52;nan
62800;BME280;48842;51.046;13.796;2022-09-01T13:42:34;100826.56;;;25.33;nan
62800;BME280;48842;51.046;13.796;2022-09-01T13:44:59;100820.34;;;25.13;nan
62800;BME280;48842;51.046;13.796;2022-09-01T13:47:25;100826.53;;;24.96;nan
62800;BME280;48842;51.046;13.796;2022-09-01T13:49:50;100826.25;;;24.83;nan
62800;BME280;48842;51.046;13.796;2022-09-01T13:52:15;100817.00;;;24.71;nan
62800;BME280;48842;51.046;13.796;2022-09-01T13:54:41;100821.97;;;24.60;nan
62800;BME280;48842;51.046;13.796;2022-09-01T13:57:08;100817.97;;;24.50;nan
62800;BME280;48842;51.046;13.796;2022-09-01T13:59:38;100829.03;;;24.42;nan
62800;BME280;48842;51.046;13.796;2022-09-01T14:02:03;100825.91;;;24.32;nan
62800;BME280;48842;51.046;13.796;2022-09-01T14:04:29;100818.38;;;24.21;nan
62800;BME280;48842;51.046;13.796;2022-09-01T14:06:55;100821.44;;;24.12;nan
62800;BME280;48842;51.046;13.796;2022-09-01T14:09:20;100822.69;;;24.05;nan
62800;BME280;48842;51.046;13.796;2022-09-01T14:11:46;100830.03;;;24.00;nan
62800;BME280;48842;51.046;13.796;2022-09-01T14:14:11;100824.91;;;23.95;nan
62800;BME280;48842;51.046;13.796;2022-09-01T14:16:36;100818.78;;;23.92;nan